createdAt,value
2024-01-05T00:00:55.013Z,99766.38
2024-01-05T00:03:40.900Z,99765.74
2024-01-05T00:06:14.748Z,99758.19
2024-01-05T00:08:48.472Z,99770.08
2024-01-05T00:11:23.099Z,99780.98
2024-01-05T00:13:56.803Z,99803.22
2024-01-05T00:16:30.611Z,99801.93
2024-01-05T00:19:04.353Z,99796.02
2024-01-05T00:21:38.145Z,99789.46
2024-01-05T00:24:12.330Z,99796.08
2024-01-05T00:26:46.582Z,99793.63
2024-01-05T00:29:20.348Z,99795.63
2024-01-05T00:31:54.145Z,99793.98
2024-01-05T00:34:27.872Z,99798.61
2024-01-05T00:37:01.446Z,99806.66
2024-01-05T00:39:35.113Z,99814.77
2024-01-05T00:42:10.057Z,99818.39
2024-01-05T00:44:43.821Z,99805.38
2024-01-05T00:47:17.724Z,99810.64
2024-01-05T00:49:51.684Z,99822.17
2024-01-05T00:52:25.402Z,99816.91
2024-01-05T00:54:58.973Z,99812.63
2024-01-05T00:57:33.195Z,99809.00
2024-01-05T01:00:10.801Z,99827.28
2024-01-05T01:02:44.539Z,99831.72
2024-01-05T01:05:19.000Z,99830.56
2024-01-05T01:07:52.848Z,99841.91
2024-01-05T01:10:26.476Z,99843.55
2024-01-05T01:13:00.328Z,99839.11
2024-01-05T01:15:34.370Z,99839.92
2024-01-05T01:18:09.027Z,99832.85
2024-01-05T01:20:42.603Z,99848.66
2024-01-05T01:23:15.935Z,99847.82
2024-01-05T01:25:49.666Z,99847.82
2024-01-05T01:28:23.367Z,99854.08
2024-01-05T01:30:56.861Z,99860.19
2024-01-05T01:33:30.758Z,99862.98
2024-01-05T01:36:04.538Z,99869.42
2024-01-05T01:38:37.934Z,99868.44
2024-01-05T01:41:12.010Z,99868.59
2024-01-05T01:43:53.274Z,99873.86
2024-01-05T01:46:28.385Z,99869.58
2024-01-05T01:49:02.466Z,99871.41
2024-01-05T01:51:37.207Z,99862.67
2024-01-05T01:54:11.594Z,99861.88
2024-01-05T01:56:47.470Z,99859.39
2024-01-05T01:59:21.150Z,99860.39
2024-01-05T02:01:55.712Z,99863.02
2024-01-05T02:04:31.515Z,99868.48
2024-01-05T02:07:06.195Z,99874.55
2024-01-05T02:09:41.586Z,99876.53
2024-01-05T02:12:15.671Z,99876.53
2024-01-05T02:14:49.555Z,99879.16
2024-01-05T02:17:36.883Z,99886.91
2024-01-05T02:20:12.706Z,99883.44
2024-01-05T02:22:52.473Z,99889.55
2024-01-05T02:25:26.357Z,99897.45
2024-01-05T02:28:00.039Z,99899.24
2024-01-05T02:30:34.166Z,99916.87
2024-01-05T02:33:09.221Z,99919.66
2024-01-05T02:35:42.930Z,99919.84
2024-01-05T02:38:16.405Z,99925.27
2024-01-05T02:40:50.035Z,99925.80
2024-01-05T02:43:23.642Z,99918.23
2024-01-05T02:45:57.303Z,99934.38
2024-01-05T02:48:31.352Z,99925.17
2024-01-05T02:51:05.271Z,99922.88
2024-01-05T02:53:38.972Z,99919.75
2024-01-05T02:56:20.565Z,99934.89
2024-01-05T02:58:54.144Z,99932.59
2024-01-05T03:01:28.001Z,99921.42
2024-01-05T03:04:02.763Z,99932.28
2024-01-05T03:06:36.680Z,99936.23
2024-01-05T03:09:10.506Z,99933.14
2024-01-05T03:11:43.910Z,99945.64
2024-01-05T03:14:17.416Z,99953.88
2024-01-05T03:16:51.065Z,99952.38
2024-01-05T03:19:25.219Z,99960.28
2024-01-05T03:21:59.329Z,99956.00
2024-01-05T03:24:33.190Z,99963.90
2024-01-05T03:27:07.238Z,99964.88
2024-01-05T03:29:41.334Z,99964.08
2024-01-05T03:32:14.794Z,99968.50
2024-01-05T03:34:48.339Z,99965.06
2024-01-05T03:37:21.919Z,99983.30
2024-01-05T03:39:56.019Z,99978.04
2024-01-05T03:42:29.929Z,99976.40
2024-01-05T03:45:03.562Z,99975.59
2024-01-05T03:47:37.217Z,99968.69
2024-01-05T03:50:13.150Z,99978.55
2024-01-05T03:52:46.563Z,99979.55
2024-01-05T03:55:20.562Z,99983.31
2024-01-05T03:57:54.525Z,99988.09
2024-01-05T04:00:28.335Z,99985.80
2024-01-05T04:03:02.412Z,99986.60
2024-01-05T04:05:37.005Z,99992.70
2024-01-05T04:08:11.459Z,99991.72
2024-01-05T04:10:45.232Z,99995.98
2024-01-05T04:13:19.068Z,100011.59
2024-01-05T04:15:52.251Z,100009.80
2024-01-05T04:18:26.459Z,100015.88
2024-01-05T04:21:00.338Z,100021.13
2024-01-05T04:23:33.839Z,100024.60
2024-01-05T04:26:08.120Z,100031.50
2024-01-05T04:28:41.873Z,100033.48
2024-01-05T04:31:15.639Z,100030.02
2024-01-05T04:33:49.491Z,100035.45
2024-01-05T04:36:23.119Z,100051.23
2024-01-05T04:38:56.335Z,100048.61
2024-01-05T04:41:30.257Z,100049.59
2024-01-05T04:44:04.217Z,100066.19
2024-01-05T04:46:37.901Z,100058.30
2024-01-05T04:49:11.702Z,100059.94
2024-01-05T04:51:45.692Z,100062.57
2024-01-05T04:54:18.900Z,100066.04
2024-01-05T04:56:52.493Z,100062.57
2024-01-05T04:59:27.145Z,100077.37
2024-01-05T05:02:01.332Z,100071.30
2024-01-05T05:04:35.032Z,100074.73
2024-01-05T05:07:09.375Z,100087.09
2024-01-05T05:09:43.196Z,100087.89
2024-01-05T05:12:16.914Z,100094.14
2024-01-05T05:14:50.297Z,100097.76
2024-01-05T05:17:23.970Z,100104.98
2024-01-05T05:19:57.688Z,100107.80
2024-01-05T05:22:31.363Z,100112.22
2024-01-05T05:25:07.503Z,100120.44
2024-01-05T05:27:41.893Z,100123.06
2024-01-05T05:30:17.456Z,100129.31
2024-01-05T05:32:51.152Z,100132.12
2024-01-05T05:35:24.880Z,100134.09
2024-01-05T05:37:58.509Z,100131.45
2024-01-05T05:40:32.817Z,100136.86
2024-01-05T05:43:06.707Z,100127.33
2024-01-05T05:45:40.654Z,100136.20
2024-01-05T05:48:15.664Z,100141.45
2024-01-05T05:50:49.445Z,100135.53
2024-01-05T05:53:23.152Z,100141.64
2024-01-05T05:55:56.323Z,100142.44
2024-01-05T05:58:29.915Z,100147.70
2024-01-05T06:01:03.656Z,100150.34
2024-01-05T06:03:37.528Z,100153.80
2024-01-05T06:06:20.743Z,100155.45
2024-01-05T06:08:54.819Z,100156.26
2024-01-05T06:11:28.694Z,100158.75
2024-01-05T06:14:05.529Z,100163.83
2024-01-05T06:16:38.763Z,100162.84
2024-01-05T06:19:12.571Z,100173.05
2024-01-05T06:21:47.161Z,100177.33
2024-01-05T06:24:20.497Z,100178.66
2024-01-05T06:26:53.963Z,100180.16
2024-01-05T06:29:27.667Z,100179.17
2024-01-05T06:32:01.089Z,100193.48
2024-01-05T06:34:34.721Z,100191.36
2024-01-05T06:37:08.863Z,100189.22
2024-01-05T06:39:42.619Z,100196.65
2024-01-05T06:42:16.412Z,100205.03
2024-01-05T06:44:50.515Z,100194.84
2024-01-05T06:47:24.205Z,100204.72
2024-01-05T06:49:58.355Z,100201.12
2024-01-05T06:52:32.163Z,100214.14
2024-01-05T06:55:06.115Z,100216.78
2024-01-05T06:57:39.834Z,100221.88
2024-01-05T07:00:15.527Z,100224.52
2024-01-05T07:02:49.204Z,100229.78
2024-01-05T07:05:22.959Z,100233.41
2024-01-05T07:07:56.984Z,100223.05
2024-01-05T07:10:30.947Z,100242.33
2024-01-05T07:13:08.016Z,100241.48
2024-01-05T07:15:41.932Z,100249.23
2024-01-05T07:18:15.711Z,100241.45
2024-01-05T07:20:49.882Z,100243.27
2024-01-05T07:23:23.262Z,100233.51
2024-01-05T07:25:56.646Z,100246.67
2024-01-05T07:28:30.386Z,100246.84
2024-01-05T07:31:07.437Z,100246.81
2024-01-05T07:33:41.934Z,100252.09
2024-01-05T07:36:15.286Z,100263.42
2024-01-05T07:38:48.820Z,100268.67
2024-01-05T07:41:22.520Z,100265.00
2024-01-05T07:43:56.083Z,100275.37
2024-01-05T07:46:29.751Z,100280.42
2024-01-05T07:49:03.442Z,100283.02
2024-01-05T07:51:39.426Z,100284.81
2024-01-05T07:54:14.544Z,100289.05
2024-01-05T07:56:48.386Z,100296.73
2024-01-05T07:59:22.184Z,100308.89
2024-01-05T08:01:57.134Z,100310.48
2024-01-05T08:04:30.971Z,100310.27
2024-01-05T08:07:04.839Z,100315.30
2024-01-05T08:09:38.630Z,100313.89
2024-01-05T08:12:15.541Z,100320.59
2024-01-05T08:14:50.583Z,100320.33
2024-01-05T08:17:24.222Z,100319.73
2024-01-05T08:19:57.900Z,100315.00
2024-01-05T08:22:31.691Z,100314.56
2024-01-05T08:25:05.640Z,100315.95
2024-01-05T08:27:39.668Z,100328.55
2024-01-05T08:30:17.058Z,100331.57
2024-01-05T08:32:56.461Z,100331.74
2024-01-05T08:35:31.425Z,100335.77
2024-01-05T08:38:05.541Z,100340.42
2024-01-05T08:40:39.292Z,100334.27
2024-01-05T08:43:12.872Z,100336.06
2024-01-05T08:45:47.099Z,100327.03
2024-01-05T08:48:20.786Z,100331.08
2024-01-05T08:50:54.959Z,100327.36
2024-01-05T08:53:28.863Z,100322.58
2024-01-05T08:56:02.600Z,100332.11
2024-01-05T08:58:35.900Z,100335.28
2024-01-05T09:01:09.649Z,100330.50
2024-01-05T09:03:44.230Z,100331.38
2024-01-05T09:06:18.313Z,100329.81
2024-01-05T09:08:52.102Z,100333.58
2024-01-05T09:11:25.824Z,100337.12
2024-01-05T09:13:59.518Z,100330.83
2024-01-05T09:16:32.570Z,100339.06
2024-01-05T09:19:06.258Z,100339.10
2024-01-05T09:21:40.451Z,100337.67
2024-01-05T09:24:14.390Z,100346.08
2024-01-05T09:26:48.038Z,100331.38
2024-01-05T09:29:22.022Z,100322.97
2024-01-05T09:31:55.456Z,100322.98
2024-01-05T09:34:29.377Z,100331.98
2024-01-05T09:37:03.172Z,100331.77
2024-01-05T09:39:36.889Z,100314.98
2024-01-05T09:42:12.359Z,100321.95
2024-01-05T09:44:47.732Z,100332.58
2024-01-05T09:47:22.477Z,100321.09
2024-01-05T09:49:56.445Z,100315.38
2024-01-05T09:52:30.197Z,100319.66
2024-01-05T09:55:03.834Z,100323.95
2024-01-05T09:57:38.936Z,100328.45
2024-01-05T10:00:19.598Z,100326.58
2024-01-05T10:02:59.420Z,100326.34
2024-01-05T10:05:34.993Z,100321.81
2024-01-05T10:08:12.460Z,100315.20
2024-01-05T10:10:57.197Z,100316.00
2024-01-05T10:13:30.725Z,100319.22
2024-01-05T10:16:04.760Z,100315.50
2024-01-05T10:18:38.195Z,100318.72
2024-01-05T10:21:14.595Z,100320.77
2024-01-05T10:23:48.171Z,100306.77
2024-01-05T10:26:22.735Z,100308.37
2024-01-05T10:28:56.175Z,100307.51
2024-01-05T10:31:29.643Z,100310.12
2024-01-05T10:34:03.568Z,100300.24
2024-01-05T10:36:37.419Z,100301.44
2024-01-05T10:39:11.596Z,100305.91
2024-01-05T10:41:48.448Z,100299.50
2024-01-05T10:44:22.653Z,100293.28
2024-01-05T10:46:56.803Z,100289.14
2024-01-05T10:49:32.055Z,100302.05
2024-01-05T10:52:06.173Z,100303.25
2024-01-05T10:54:39.470Z,100291.09
2024-01-05T10:57:14.622Z,100302.77
2024-01-05T10:59:52.095Z,100293.88
2024-01-05T11:02:27.405Z,100294.63
2024-01-05T11:05:09.883Z,100293.73
2024-01-05T11:07:45.176Z,100294.69
2024-01-05T11:10:30.943Z,100297.52
2024-01-05T11:13:26.054Z,100303.25
2024-01-05T11:16:18.288Z,100302.56
2024-01-05T11:19:19.712Z,100307.02
2024-01-05T11:21:57.812Z,100309.84
2024-01-05T11:24:31.424Z,100304.88
2024-01-05T11:27:31.833Z,100303.60
2024-01-05T11:30:06.638Z,100310.13
2024-01-05T11:32:44.084Z,100312.36
2024-01-05T11:35:45.451Z,100310.28
2024-01-05T11:38:43.826Z,100305.31
2024-01-05T11:41:24.539Z,100304.27
2024-01-05T11:43:58.400Z,100303.83
2024-01-05T11:47:02.508Z,100309.77
2024-01-05T11:49:43.797Z,100301.50
2024-01-05T11:52:20.582Z,100303.73
2024-01-05T11:55:13.490Z,100304.31
2024-01-05T11:57:49.330Z,100310.26
2024-01-05T12:00:23.498Z,100306.55
2024-01-05T12:03:04.624Z,100309.81
2024-01-05T12:05:38.549Z,100310.78
2024-01-05T12:08:13.403Z,100312.17
2024-01-05T12:10:47.461Z,100309.91
2024-01-05T12:13:26.646Z,100310.49
2024-01-05T12:16:02.409Z,100319.91
2024-01-05T12:18:45.923Z,100327.48
2024-01-05T12:21:21.760Z,100314.70
2024-01-05T12:23:57.452Z,100329.49
2024-01-05T12:26:32.692Z,100316.47
2024-01-05T12:29:06.870Z,100324.03
2024-01-05T12:31:43.183Z,100334.73
2024-01-05T12:34:18.884Z,100329.17
2024-01-05T12:36:52.374Z,100334.08
2024-01-05T12:39:27.613Z,100343.14
2024-01-05T12:42:01.794Z,100349.30
2024-01-05T12:44:36.578Z,100354.89
2024-01-05T12:47:10.019Z,100354.89
2024-01-05T12:49:45.227Z,100355.94
2024-01-05T12:52:18.990Z,100363.13
2024-01-05T12:54:53.304Z,100364.77
2024-01-05T12:57:27.629Z,100369.31
2024-01-05T13:00:07.134Z,100367.89
2024-01-05T13:02:42.978Z,100368.34
2024-01-05T13:05:35.885Z,100373.94
2024-01-05T13:08:10.397Z,100370.08
2024-01-05T13:10:44.095Z,100384.50
2024-01-05T13:13:19.015Z,100374.25
2024-01-05T13:15:52.620Z,100378.42
2024-01-05T13:18:26.424Z,100382.34
2024-01-05T13:21:00.282Z,100384.63
2024-01-05T13:23:34.331Z,100385.53
2024-01-05T13:26:08.864Z,100391.09
2024-01-05T13:28:42.978Z,100393.41
2024-01-05T13:31:17.138Z,100391.39
2024-01-05T13:33:50.882Z,100403.56
2024-01-05T13:36:24.568Z,100402.38
2024-01-05T13:38:57.704Z,100411.08
2024-01-05T13:41:31.006Z,100400.67
2024-01-05T13:44:04.738Z,100409.34
2024-01-05T13:46:38.483Z,100405.71
2024-01-05T13:49:12.013Z,100413.78
2024-01-05T13:51:45.562Z,100415.49
2024-01-05T13:54:19.333Z,100417.61
2024-01-05T13:56:52.681Z,100423.83
2024-01-05T13:59:26.484Z,100423.89
2024-01-05T14:01:59.958Z,100427.44
2024-01-05T14:04:33.687Z,100437.34
2024-01-05T14:07:07.376Z,100436.34
2024-01-05T14:09:40.411Z,100439.88
2024-01-05T14:12:14.536Z,100443.41
2024-01-05T14:14:48.174Z,100444.50
2024-01-05T14:17:23.899Z,100445.33
2024-01-05T14:19:57.557Z,100444.75
2024-01-05T14:22:31.353Z,100443.77
2024-01-05T14:25:05.977Z,100450.16
2024-01-05T14:27:39.317Z,100453.06
2024-01-05T14:30:16.602Z,100460.47
2024-01-05T14:32:50.471Z,100464.21
2024-01-05T14:35:23.962Z,100468.75
2024-01-05T14:37:57.512Z,100475.95
2024-01-05T14:40:31.138Z,100474.31
2024-01-05T14:43:04.835Z,100477.20
2024-01-05T14:45:38.596Z,100473.95
2024-01-05T14:48:12.971Z,100474.36
2024-01-05T14:50:47.073Z,100474.80
2024-01-05T14:53:20.599Z,100479.50
2024-01-05T14:55:54.280Z,100478.91
2024-01-05T14:58:27.988Z,100472.95
2024-01-05T15:01:01.981Z,100477.27
2024-01-05T15:03:38.720Z,100466.78
2024-01-05T15:06:13.794Z,100473.11
2024-01-05T15:08:47.495Z,100467.98
2024-01-05T15:11:23.302Z,100473.50
2024-01-05T15:13:56.992Z,100483.53
2024-01-05T15:16:31.069Z,100475.73
2024-01-05T15:19:07.129Z,100483.68
2024-01-05T15:21:41.101Z,100485.72
2024-01-05T15:24:14.778Z,100485.89
2024-01-05T15:26:49.009Z,100491.38
2024-01-05T15:29:22.444Z,100487.25
2024-01-05T15:31:57.235Z,100504.40
2024-01-05T15:34:31.338Z,100500.44
2024-01-05T15:37:05.270Z,100506.13
2024-01-05T15:39:39.716Z,100504.64
2024-01-05T15:42:14.334Z,100506.82
2024-01-05T15:44:48.032Z,100509.80
2024-01-05T15:47:22.479Z,100514.25
2024-01-05T15:49:56.337Z,100507.41
2024-01-05T15:52:30.258Z,100509.36
2024-01-05T15:55:03.245Z,100512.78
2024-01-05T15:57:37.080Z,100509.45
2024-01-05T16:00:13.975Z,100508.37
2024-01-05T16:02:47.655Z,100507.69
2024-01-05T16:05:21.707Z,100514.56
2024-01-05T16:07:55.540Z,100512.03
2024-01-05T16:10:29.581Z,100514.43
2024-01-05T16:13:03.242Z,100512.53
2024-01-05T16:15:37.060Z,100513.48
2024-01-05T16:18:11.232Z,100510.11
2024-01-05T16:20:46.945Z,100519.83
2024-01-05T16:23:20.828Z,100528.89
2024-01-05T16:25:54.455Z,100527.19
2024-01-05T16:28:28.435Z,100530.74
2024-01-05T16:31:02.329Z,100521.07
2024-01-05T16:33:37.006Z,100529.93
2024-01-05T16:36:13.886Z,100529.22
2024-01-05T16:38:49.661Z,100530.11
2024-01-05T16:41:25.785Z,100525.54
2024-01-05T16:44:00.348Z,100520.16
2024-01-05T16:46:34.122Z,100521.69
2024-01-05T16:49:08.502Z,100526.91
2024-01-05T16:51:42.283Z,100523.14
2024-01-05T16:54:15.906Z,100532.65
2024-01-05T16:56:54.658Z,100530.84
2024-01-05T16:59:29.254Z,100527.27
2024-01-05T17:02:02.965Z,100533.48
2024-01-05T17:04:36.633Z,100541.30
2024-01-05T17:07:10.604Z,100540.36
2024-01-05T17:09:44.990Z,100534.77
2024-01-05T17:12:20.140Z,100543.41
2024-01-05T17:14:53.910Z,100544.31
2024-01-05T17:17:27.666Z,100546.98
2024-01-05T17:20:16.346Z,100542.58
2024-01-05T17:22:55.105Z,100555.02
2024-01-05T17:25:29.168Z,100550.42
2024-01-05T17:28:02.474Z,100552.77
2024-01-05T17:30:36.703Z,100555.11
2024-01-05T17:33:11.200Z,100550.69
2024-01-05T17:35:45.585Z,100539.16
2024-01-05T17:38:19.252Z,100545.13
2024-01-05T17:40:53.059Z,100540.53
2024-01-05T17:43:26.649Z,100545.51
2024-01-05T17:46:04.139Z,100545.35
2024-01-05T17:48:37.901Z,100548.67
2024-01-05T17:51:11.621Z,100550.19
2024-01-05T17:53:45.997Z,100551.86
2024-01-05T17:56:27.009Z,100555.19
2024-01-05T17:59:00.738Z,100546.94
2024-01-05T18:01:34.916Z,100548.60
2024-01-05T18:04:08.645Z,100544.98
2024-01-05T18:06:42.646Z,100541.36
2024-01-05T18:09:16.290Z,100552.59
2024-01-05T18:11:49.622Z,100556.05
2024-01-05T18:14:23.173Z,100561.19
2024-01-05T18:16:56.615Z,100560.02
2024-01-05T18:19:30.401Z,100557.22
2024-01-05T18:22:04.468Z,100560.34
2024-01-05T18:24:38.400Z,100555.90
2024-01-05T18:27:12.058Z,100559.01
2024-01-05T18:29:45.447Z,100567.58
2024-01-05T18:32:19.024Z,100568.41
2024-01-05T18:34:53.045Z,100568.85
2024-01-05T18:37:26.420Z,100565.73
2024-01-05T18:39:59.881Z,100560.25
2024-01-05T18:42:33.661Z,100559.91
2024-01-05T18:45:09.286Z,100559.57
2024-01-05T18:47:42.921Z,100555.92
2024-01-05T18:50:16.541Z,100562.68
2024-01-05T18:52:50.378Z,100559.84
2024-01-05T18:55:23.890Z,100550.77
2024-01-05T18:57:57.426Z,100546.95
2024-01-05T19:00:31.761Z,100545.79
2024-01-05T19:03:05.797Z,100550.05
2024-01-05T19:05:39.843Z,100561.05
2024-01-05T19:08:17.073Z,100557.88
2024-01-05T19:10:51.474Z,100558.52
2024-01-05T19:13:25.590Z,100549.27
2024-01-05T19:15:59.466Z,100534.26
2024-01-05T19:18:34.634Z,100543.46
2024-01-05T19:21:09.796Z,100542.27
2024-01-05T19:23:43.650Z,100544.53
2024-01-05T19:26:21.665Z,100541.41
2024-01-05T19:28:55.362Z,100548.10
2024-01-05T19:31:29.090Z,100542.34
2024-01-05T19:34:03.021Z,100547.06
2024-01-05T19:36:38.010Z,100545.89
2024-01-05T19:39:12.327Z,100543.71
2024-01-05T19:41:51.525Z,100548.78
2024-01-05T19:44:25.204Z,100557.66
2024-01-05T19:46:58.825Z,100550.38
2024-01-05T19:49:35.331Z,100548.18
2024-01-05T19:52:10.001Z,100554.59
2024-01-05T19:54:43.528Z,100554.22
2024-01-05T19:57:17.513Z,100557.30
2024-01-05T19:59:51.462Z,100560.23
2024-01-05T20:02:25.105Z,100549.19
2024-01-05T20:05:00.318Z,100545.34
2024-01-05T20:07:34.915Z,100550.91
2024-01-05T20:10:10.309Z,100552.35
2024-01-05T20:12:47.469Z,100547.53
2024-01-05T20:15:21.425Z,100543.71
2024-01-05T20:17:55.230Z,100541.52
2024-01-05T20:20:28.716Z,100549.56
2024-01-05T20:23:03.289Z,100546.27
2024-01-05T20:25:36.798Z,100551.14
2024-01-05T20:28:11.447Z,100556.53
2024-01-05T20:30:45.321Z,100550.89
2024-01-05T20:33:19.016Z,100554.50
